sensor_id;sensor_type;location;lat;lon;timestamp;P1;durP1;ratioP1;P2;durP2;ratioP2
32427;SDS011;18882;50.952;4.366;2023-05-19T00:01:05;11.93;;;4.68;;
32427;SDS011;18882;50.952;4.366;2023-05-19T00:03:35;10.20;;;5.88;;
32427;SDS011;18882;50.952;4.366;2023-05-19T00:06:07;9.88;;;4.60;;
32427;SDS011;18882;50.952;4.366;2023-05-19T00:08:33;11.13;;;5.40;;
32427;SDS011;18882;50.952;4.366;2023-05-19T00:11:01;12.00;;;5.00;;
32427;SDS011;18882;50.952;4.366;2023-05-19T00:13:27;11.02;;;5.13;;
32427;SDS011;18882;50.952;4.366;2023-05-19T00:15:53;11.65;;;5.25;;
32427;SDS011;18882;50.952;4.366;2023-05-19T00:18:19;9.15;;;5.18;;
32427;SDS011;18882;50.952;4.366;2023-05-19T00:20:46;10.50;;;5.25;;
32427;SDS011;18882;50.952;4.366;2023-05-19T00:23:11;14.75;;;5.72;;
32427;SDS011;18882;50.952;4.366;2023-05-19T00:25:37;9.48;;;5.00;;
32427;SDS011;18882;50.952;4.366;2023-05-19T00:28:03;8.20;;;5.03;;
32427;SDS011;18882;50.952;4.366;2023-05-19T00:30:29;10.27;;;5.22;;
32427;SDS011;18882;50.952;4.366;2023-05-19T00:32:55;13.35;;;6.00;;
32427;SDS011;18882;50.952;4.366;2023-05-19T00:35:21;13.10;;;6.05;;
32427;SDS011;18882;50.952;4.366;2023-05-19T00:37:49;12.23;;;5.45;;
32427;SDS011;18882;50.952;4.366;2023-05-19T00:40:15;14.60;;;4.88;;
32427;SDS011;18882;50.952;4.366;2023-05-19T00:42:41;9.68;;;5.28;;
32427;SDS011;18882;50.952;4.366;2023-05-19T00:45:07;15.10;;;5.78;;
32427;SDS011;18882;50.952;4.366;2023-05-19T00:47:33;13.82;;;5.72;;
32427;SDS011;18882;50.952;4.366;2023-05-19T00:49:59;8.85;;;4.63;;
32427;SDS011;18882;50.952;4.366;2023-05-19T00:52:25;11.48;;;5.40;;
32427;SDS011;18882;50.952;4.366;2023-05-19T00:54:51;13.55;;;5.65;;
32427;SDS011;18882;50.952;4.366;2023-05-19T00:57:18;11.10;;;5.47;;
32427;SDS011;18882;50.952;4.366;2023-05-19T00:59:45;12.13;;;5.78;;
32427;SDS011;18882;50.952;4.366;2023-05-19T01:02:12;12.27;;;6.07;;
32427;SDS011;18882;50.952;4.366;2023-05-19T01:04:39;12.88;;;5.95;;
32427;SDS011;18882;50.952;4.366;2023-05-19T01:07:05;14.02;;;6.60;;
32427;SDS011;18882;50.952;4.366;2023-05-19T01:09:32;10.43;;;5.28;;
32427;SDS011;18882;50.952;4.366;2023-05-19T01:11:59;17.52;;;6.28;;
32427;SDS011;18882;50.952;4.366;2023-05-19T01:14:25;14.57;;;5.88;;
32427;SDS011;18882;50.952;4.366;2023-05-19T01:22:13;12.32;;;5.10;;
32427;SDS011;18882;50.952;4.366;2023-05-19T01:30:54;10.20;;;5.50;;
32427;SDS011;18882;50.952;4.366;2023-05-19T01:33:22;14.82;;;5.80;;
32427;SDS011;18882;50.952;4.366;2023-05-19T01:35:49;16.92;;;6.75;;
32427;SDS011;18882;50.952;4.366;2023-05-19T01:38:16;12.90;;;6.07;;
32427;SDS011;18882;50.952;4.366;2023-05-19T01:40:45;9.25;;;5.78;;
32427;SDS011;18882;50.952;4.366;2023-05-19T01:43:13;12.73;;;5.93;;
32427;SDS011;18882;50.952;4.366;2023-05-19T01:45:41;13.85;;;6.30;;
32427;SDS011;18882;50.952;4.366;2023-05-19T01:48:08;16.48;;;6.05;;
32427;SDS011;18882;50.952;4.366;2023-05-19T01:50:36;12.65;;;5.40;;
32427;SDS011;18882;50.952;4.366;2023-05-19T01:53:01;11.45;;;6.18;;
32427;SDS011;18882;50.952;4.366;2023-05-19T01:55:27;11.32;;;5.93;;
32427;SDS011;18882;50.952;4.366;2023-05-19T02:06:05;16.80;;;6.03;;
32427;SDS011;18882;50.952;4.366;2023-05-19T02:08:56;10.15;;;5.93;;
32427;SDS011;18882;50.952;4.366;2023-05-19T02:16:54;7.78;;;5.25;;
32427;SDS011;18882;50.952;4.366;2023-05-19T02:19:26;14.20;;;5.70;;
32427;SDS011;18882;50.952;4.366;2023-05-19T02:21:56;18.10;;;6.03;;
32427;SDS011;18882;50.952;4.366;2023-05-19T02:24:21;17.98;;;6.28;;
32427;SDS011;18882;50.952;4.366;2023-05-19T02:26:51;15.55;;;6.68;;
32427;SDS011;18882;50.952;4.366;2023-05-19T02:29:18;13.10;;;6.57;;
32427;SDS011;18882;50.952;4.366;2023-05-19T02:31:44;11.73;;;6.63;;
32427;SDS011;18882;50.952;4.366;2023-05-19T02:34:10;11.98;;;5.82;;
32427;SDS011;18882;50.952;4.366;2023-05-19T02:36:37;10.32;;;5.30;;
32427;SDS011;18882;50.952;4.366;2023-05-19T02:39:05;17.42;;;7.35;;
32427;SDS011;18882;50.952;4.366;2023-05-19T02:41:31;13.23;;;6.40;;
32427;SDS011;18882;50.952;4.366;2023-05-19T02:43:56;10.60;;;5.47;;
32427;SDS011;18882;50.952;4.366;2023-05-19T02:46:25;12.18;;;6.60;;
32427;SDS011;18882;50.952;4.366;2023-05-19T02:48:51;14.32;;;6.43;;
32427;SDS011;18882;50.952;4.366;2023-05-19T02:51:17;13.85;;;6.00;;
32427;SDS011;18882;50.952;4.366;2023-05-19T02:53:42;15.77;;;6.50;;
32427;SDS011;18882;50.952;4.366;2023-05-19T02:56:08;16.15;;;6.35;;
32427;SDS011;18882;50.952;4.366;2023-05-19T02:58:34;11.35;;;6.20;;
32427;SDS011;18882;50.952;4.366;2023-05-19T03:00:59;15.60;;;6.63;;
32427;SDS011;18882;50.952;4.366;2023-05-19T03:03:25;14.50;;;6.05;;
32427;SDS011;18882;50.952;4.366;2023-05-19T03:05:51;13.98;;;6.05;;
32427;SDS011;18882;50.952;4.366;2023-05-19T03:08:17;23.27;;;7.10;;
32427;SDS011;18882;50.952;4.366;2023-05-19T03:10:44;16.55;;;6.55;;
32427;SDS011;18882;50.952;4.366;2023-05-19T03:13:10;13.80;;;6.55;;
32427;SDS011;18882;50.952;4.366;2023-05-19T03:15:36;15.05;;;6.15;;
32427;SDS011;18882;50.952;4.366;2023-05-19T03:18:03;20.13;;;6.75;;
32427;SDS011;18882;50.952;4.366;2023-05-19T03:20:30;16.50;;;6.57;;
32427;SDS011;18882;50.952;4.366;2023-05-19T03:22:56;18.83;;;6.63;;
32427;SDS011;18882;50.952;4.366;2023-05-19T03:25:22;14.30;;;6.82;;
32427;SDS011;18882;50.952;4.366;2023-05-19T03:27:47;11.75;;;6.70;;
32427;SDS011;18882;50.952;4.366;2023-05-19T03:30:13;19.35;;;6.97;;
32427;SDS011;18882;50.952;4.366;2023-05-19T03:32:39;14.75;;;6.72;;
32427;SDS011;18882;50.952;4.366;2023-05-19T03:35:05;12.63;;;7.03;;
32427;SDS011;18882;50.952;4.366;2023-05-19T03:37:31;20.67;;;6.82;;
32427;SDS011;18882;50.952;4.366;2023-05-19T03:39:57;13.48;;;7.28;;
32427;SDS011;18882;50.952;4.366;2023-05-19T03:42:23;18.58;;;7.30;;
32427;SDS011;18882;50.952;4.366;2023-05-19T03:44:49;14.63;;;6.45;;
32427;SDS011;18882;50.952;4.366;2023-05-19T03:47:15;12.43;;;6.10;;
32427;SDS011;18882;50.952;4.366;2023-05-19T03:49:41;14.63;;;6.85;;
32427;SDS011;18882;50.952;4.366;2023-05-19T03:52:06;15.15;;;7.10;;
32427;SDS011;18882;50.952;4.366;2023-05-19T03:54:33;20.52;;;7.80;;
32427;SDS011;18882;50.952;4.366;2023-05-19T03:56:59;14.68;;;7.32;;
32427;SDS011;18882;50.952;4.366;2023-05-19T03:59:26;16.17;;;6.88;;
32427;SDS011;18882;50.952;4.366;2023-05-19T04:01:51;16.10;;;6.90;;
32427;SDS011;18882;50.952;4.366;2023-05-19T04:04:17;16.20;;;7.10;;
32427;SDS011;18882;50.952;4.366;2023-05-19T04:06:43;15.70;;;7.22;;
32427;SDS011;18882;50.952;4.366;2023-05-19T04:09:10;14.43;;;7.20;;
32427;SDS011;18882;50.952;4.366;2023-05-19T04:11:37;15.15;;;6.78;;
32427;SDS011;18882;50.952;4.366;2023-05-19T04:14:04;17.17;;;6.90;;
32427;SDS011;18882;50.952;4.366;2023-05-19T04:16:32;18.92;;;7.28;;
32427;SDS011;18882;50.952;4.366;2023-05-19T04:18:59;15.25;;;7.38;;
32427;SDS011;18882;50.952;4.366;2023-05-19T04:21:25;16.08;;;7.93;;
32427;SDS011;18882;50.952;4.366;2023-05-19T04:23:51;16.15;;;6.93;;
32427;SDS011;18882;50.952;4.366;2023-05-19T04:26:19;18.45;;;7.25;;
32427;SDS011;18882;50.952;4.366;2023-05-19T04:28:46;14.73;;;6.22;;
32427;SDS011;18882;50.952;4.366;2023-05-19T04:31:13;14.73;;;7.65;;
32427;SDS011;18882;50.952;4.366;2023-05-19T04:33:42;12.80;;;6.78;;
32427;SDS011;18882;50.952;4.366;2023-05-19T04:36:08;16.90;;;6.25;;
32427;SDS011;18882;50.952;4.366;2023-05-19T04:38:36;22.88;;;6.80;;
32427;SDS011;18882;50.952;4.366;2023-05-19T04:41:04;13.77;;;7.13;;
32427;SDS011;18882;50.952;4.366;2023-05-19T04:43:36;17.45;;;7.18;;
32427;SDS011;18882;50.952;4.366;2023-05-19T04:46:09;15.88;;;6.75;;
32427;SDS011;18882;50.952;4.366;2023-05-19T04:48:35;13.65;;;6.68;;
32427;SDS011;18882;50.952;4.366;2023-05-19T04:51:01;19.55;;;6.75;;
32427;SDS011;18882;50.952;4.366;2023-05-19T04:53:27;16.27;;;6.93;;
32427;SDS011;18882;50.952;4.366;2023-05-19T04:55:53;16.50;;;6.15;;
32427;SDS011;18882;50.952;4.366;2023-05-19T04:58:20;14.63;;;6.90;;
32427;SDS011;18882;50.952;4.366;2023-05-19T05:00:49;11.88;;;6.40;;
32427;SDS011;18882;50.952;4.366;2023-05-19T05:03:25;14.57;;;6.53;;
32427;SDS011;18882;50.952;4.366;2023-05-19T05:05:50;15.45;;;6.53;;
32427;SDS011;18882;50.952;4.366;2023-05-19T05:08:17;21.77;;;7.30;;
32427;SDS011;18882;50.952;4.366;2023-05-19T05:10:49;15.40;;;6.82;;
32427;SDS011;18882;50.952;4.366;2023-05-19T05:13:16;11.48;;;6.60;;
32427;SDS011;18882;50.952;4.366;2023-05-19T05:15:46;14.57;;;6.28;;
32427;SDS011;18882;50.952;4.366;2023-05-19T05:18:13;20.73;;;6.80;;
32427;SDS011;18882;50.952;4.366;2023-05-19T05:20:40;16.30;;;6.28;;
32427;SDS011;18882;50.952;4.366;2023-05-19T05:23:10;15.73;;;7.25;;
32427;SDS011;18882;50.952;4.366;2023-05-19T05:25:39;16.90;;;7.65;;
32427;SDS011;18882;50.952;4.366;2023-05-19T05:28:05;17.23;;;6.78;;
32427;SDS011;18882;50.952;4.366;2023-05-19T05:30:32;15.27;;;7.57;;
32427;SDS011;18882;50.952;4.366;2023-05-19T05:32:59;22.80;;;6.97;;
32427;SDS011;18882;50.952;4.366;2023-05-19T05:35:25;19.67;;;6.55;;
32427;SDS011;18882;50.952;4.366;2023-05-19T05:37:51;13.32;;;6.88;;
32427;SDS011;18882;50.952;4.366;2023-05-19T05:40:17;24.23;;;6.57;;
32427;SDS011;18882;50.952;4.366;2023-05-19T05:42:43;16.88;;;7.00;;
32427;SDS011;18882;50.952;4.366;2023-05-19T05:45:09;23.48;;;7.25;;
32427;SDS011;18882;50.952;4.366;2023-05-19T05:47:35;13.23;;;6.55;;
32427;SDS011;18882;50.952;4.366;2023-05-19T05:50:05;17.65;;;6.95;;
32427;SDS011;18882;50.952;4.366;2023-05-19T05:52:35;18.65;;;7.47;;
32427;SDS011;18882;50.952;4.366;2023-05-19T05:55:02;17.13;;;7.35;;
32427;SDS011;18882;50.952;4.366;2023-05-19T05:57:28;11.50;;;6.55;;
32427;SDS011;18882;50.952;4.366;2023-05-19T05:59:55;13.90;;;6.57;;
32427;SDS011;18882;50.952;4.366;2023-05-19T06:02:20;14.88;;;7.30;;
32427;SDS011;18882;50.952;4.366;2023-05-19T06:04:46;14.75;;;6.50;;
32427;SDS011;18882;50.952;4.366;2023-05-19T06:07:12;13.25;;;6.70;;
32427;SDS011;18882;50.952;4.366;2023-05-19T06:09:38;14.82;;;7.18;;
32427;SDS011;18882;50.952;4.366;2023-05-19T06:12:04;17.17;;;7.03;;
32427;SDS011;18882;50.952;4.366;2023-05-19T06:14:30;18.15;;;6.53;;
32427;SDS011;18882;50.952;4.366;2023-05-19T06:16:56;13.00;;;7.00;;
32427;SDS011;18882;50.952;4.366;2023-05-19T06:19:22;18.15;;;6.75;;
32427;SDS011;18882;50.952;4.366;2023-05-19T06:21:50;14.10;;;6.63;;
32427;SDS011;18882;50.952;4.366;2023-05-19T06:24:16;14.50;;;6.57;;
32427;SDS011;18882;50.952;4.366;2023-05-19T06:26:42;10.07;;;6.72;;
32427;SDS011;18882;50.952;4.366;2023-05-19T06:29:07;12.05;;;6.72;;
32427;SDS011;18882;50.952;4.366;2023-05-19T06:31:33;16.55;;;7.22;;
32427;SDS011;18882;50.952;4.366;2023-05-19T06:33:59;19.25;;;6.50;;
32427;SDS011;18882;50.952;4.366;2023-05-19T06:36:24;13.65;;;6.03;;
32427;SDS011;18882;50.952;4.366;2023-05-19T06:38:50;11.25;;;6.45;;
32427;SDS011;18882;50.952;4.366;2023-05-19T06:41:16;14.13;;;5.90;;
32427;SDS011;18882;50.952;4.366;2023-05-19T06:43:43;13.20;;;6.55;;
32427;SDS011;18882;50.952;4.366;2023-05-19T06:46:09;18.83;;;8.18;;
32427;SDS011;18882;50.952;4.366;2023-05-19T06:48:36;14.05;;;5.97;;
32427;SDS011;18882;50.952;4.366;2023-05-19T06:51:02;16.33;;;6.68;;
32427;SDS011;18882;50.952;4.366;2023-05-19T06:53:29;13.05;;;6.30;;
32427;SDS011;18882;50.952;4.366;2023-05-19T06:55:56;14.27;;;5.82;;
32427;SDS011;18882;50.952;4.366;2023-05-19T06:58:21;13.38;;;6.38;;
32427;SDS011;18882;50.952;4.366;2023-05-19T07:00:47;17.75;;;7.07;;
32427;SDS011;18882;50.952;4.366;2023-05-19T07:03:13;15.07;;;6.47;;
32427;SDS011;18882;50.952;4.366;2023-05-19T07:05:38;12.88;;;5.85;;
32427;SDS011;18882;50.952;4.366;2023-05-19T07:08:04;14.32;;;7.07;;
32427;SDS011;18882;50.952;4.366;2023-05-19T07:10:30;16.92;;;6.40;;
32427;SDS011;18882;50.952;4.366;2023-05-19T07:12:56;11.75;;;6.22;;
32427;SDS011;18882;50.952;4.366;2023-05-19T07:15:22;12.27;;;6.20;;
32427;SDS011;18882;50.952;4.366;2023-05-19T07:17:48;9.82;;;5.78;;
32427;SDS011;18882;50.952;4.366;2023-05-19T07:20:13;11.18;;;6.20;;
32427;SDS011;18882;50.952;4.366;2023-05-19T07:22:39;13.13;;;6.57;;
32427;SDS011;18882;50.952;4.366;2023-05-19T07:25:05;13.43;;;6.35;;
32427;SDS011;18882;50.952;4.366;2023-05-19T07:27:32;17.73;;;6.30;;
32427;SDS011;18882;50.952;4.366;2023-05-19T07:29:58;14.88;;;5.90;;
32427;SDS011;18882;50.952;4.366;2023-05-19T07:32:23;18.20;;;6.95;;
32427;SDS011;18882;50.952;4.366;2023-05-19T07:34:49;14.57;;;7.22;;
32427;SDS011;18882;50.952;4.366;2023-05-19T07:37:15;14.20;;;7.05;;
32427;SDS011;18882;50.952;4.366;2023-05-19T07:39:41;16.60;;;6.13;;
32427;SDS011;18882;50.952;4.366;2023-05-19T07:42:06;11.30;;;6.15;;
32427;SDS011;18882;50.952;4.366;2023-05-19T07:44:32;12.68;;;6.35;;
32427;SDS011;18882;50.952;4.366;2023-05-19T07:46:58;10.88;;;6.25;;
32427;SDS011;18882;50.952;4.366;2023-05-19T07:49:25;17.80;;;6.20;;
32427;SDS011;18882;50.952;4.366;2023-05-19T07:51:51;13.15;;;6.00;;
32427;SDS011;18882;50.952;4.366;2023-05-19T07:54:17;13.50;;;6.35;;
32427;SDS011;18882;50.952;4.366;2023-05-19T07:56:42;15.63;;;5.75;;
32427;SDS011;18882;50.952;4.366;2023-05-19T07:59:08;11.55;;;5.93;;
32427;SDS011;18882;50.952;4.366;2023-05-19T08:01:34;13.27;;;6.25;;
32427;SDS011;18882;50.952;4.366;2023-05-19T08:04:00;9.32;;;6.00;;
32427;SDS011;18882;50.952;4.366;2023-05-19T08:06:26;12.82;;;6.00;;
32427;SDS011;18882;50.952;4.366;2023-05-19T08:08:53;17.25;;;6.97;;
32427;SDS011;18882;50.952;4.366;2023-05-19T08:11:19;17.40;;;6.30;;
32427;SDS011;18882;50.952;4.366;2023-05-19T08:13:45;10.77;;;5.38;;
32427;SDS011;18882;50.952;4.366;2023-05-19T08:16:13;14.98;;;6.15;;
32427;SDS011;18882;50.952;4.366;2023-05-19T08:18:41;19.08;;;5.55;;
32427;SDS011;18882;50.952;4.366;2023-05-19T08:21:07;12.75;;;6.25;;
32427;SDS011;18882;50.952;4.366;2023-05-19T08:23:33;8.30;;;5.13;;
32427;SDS011;18882;50.952;4.366;2023-05-19T08:26:01;15.18;;;5.82;;
32427;SDS011;18882;50.952;4.366;2023-05-19T08:28:27;10.52;;;4.95;;
32427;SDS011;18882;50.952;4.366;2023-05-19T08:30:52;9.80;;;5.38;;
32427;SDS011;18882;50.952;4.366;2023-05-19T08:33:18;8.40;;;5.03;;
32427;SDS011;18882;50.952;4.366;2023-05-19T08:35:45;14.10;;;5.07;;
32427;SDS011;18882;50.952;4.366;2023-05-19T08:38:11;20.08;;;5.28;;
32427;SDS011;18882;50.952;4.366;2023-05-19T08:40:39;12.07;;;5.78;;
32427;SDS011;18882;50.952;4.366;2023-05-19T08:43:06;6.88;;;4.78;;
32427;SDS011;18882;50.952;4.366;2023-05-19T08:45:32;7.88;;;4.97;;
32427;SDS011;18882;50.952;4.366;2023-05-19T08:48:02;8.85;;;4.47;;
32427;SDS011;18882;50.952;4.366;2023-05-19T08:50:29;9.52;;;4.30;;
32427;SDS011;18882;50.952;4.366;2023-05-19T08:53:03;12.50;;;5.05;;
32427;SDS011;18882;50.952;4.366;2023-05-19T08:58:28;10.30;;;4.30;;
32427;SDS011;18882;50.952;4.366;2023-05-19T09:00:56;9.55;;;4.60;;
32427;SDS011;18882;50.952;4.366;2023-05-19T09:03:23;7.32;;;3.60;;
32427;SDS011;18882;50.952;4.366;2023-05-19T09:05:52;7.90;;;3.60;;
32427;SDS011;18882;50.952;4.366;2023-05-19T09:08:18;13.75;;;4.35;;
32427;SDS011;18882;50.952;4.366;2023-05-19T09:10:44;13.95;;;4.00;;
32427;SDS011;18882;50.952;4.366;2023-05-19T09:13:09;8.60;;;4.85;;
32427;SDS011;18882;50.952;4.366;2023-05-19T09:15:35;8.05;;;3.85;;
32427;SDS011;18882;50.952;4.366;2023-05-19T09:18:06;10.30;;;4.15;;
32427;SDS011;18882;50.952;4.366;2023-05-19T09:20:36;6.75;;;4.22;;
32427;SDS011;18882;50.952;4.366;2023-05-19T09:23:07;10.57;;;3.90;;
32427;SDS011;18882;50.952;4.366;2023-05-19T09:25:50;9.23;;;3.28;;
32427;SDS011;18882;50.952;4.366;2023-05-19T09:31:00;6.03;;;3.83;;
32427;SDS011;18882;50.952;4.366;2023-05-19T09:33:31;7.75;;;3.53;;
32427;SDS011;18882;50.952;4.366;2023-05-19T09:35:58;8.77;;;3.63;;
32427;SDS011;18882;50.952;4.366;2023-05-19T09:38:25;10.00;;;3.45;;
32427;SDS011;18882;50.952;4.366;2023-05-19T09:40:51;6.85;;;3.72;;
32427;SDS011;18882;50.952;4.366;2023-05-19T09:43:20;9.57;;;3.25;;
32427;SDS011;18882;50.952;4.366;2023-05-19T09:45:46;9.30;;;2.38;;
32427;SDS011;18882;50.952;4.366;2023-05-19T09:48:13;4.05;;;2.55;;
32427;SDS011;18882;50.952;4.366;2023-05-19T09:50:41;7.00;;;2.55;;
32427;SDS011;18882;50.952;4.366;2023-05-19T09:53:08;6.25;;;1.70;;
32427;SDS011;18882;50.952;4.366;2023-05-19T09:55:36;2.97;;;1.33;;
32427;SDS011;18882;50.952;4.366;2023-05-19T09:58:02;4.88;;;1.92;;
32427;SDS011;18882;50.952;4.366;2023-05-19T10:00:29;4.28;;;1.77;;
32427;SDS011;18882;50.952;4.366;2023-05-19T10:02:56;3.97;;;1.73;;
32427;SDS011;18882;50.952;4.366;2023-05-19T10:05:24;5.95;;;1.63;;
32427;SDS011;18882;50.952;4.366;2023-05-19T10:07:52;7.40;;;1.77;;
32427;SDS011;18882;50.952;4.366;2023-05-19T10:10:19;5.13;;;1.77;;
32427;SDS011;18882;50.952;4.366;2023-05-19T10:12:45;6.35;;;1.77;;
32427;SDS011;18882;50.952;4.366;2023-05-19T10:15:13;4.47;;;1.98;;
32427;SDS011;18882;50.952;4.366;2023-05-19T10:17:43;7.07;;;2.03;;
32427;SDS011;18882;50.952;4.366;2023-05-19T10:20:10;5.25;;;1.65;;
32427;SDS011;18882;50.952;4.366;2023-05-19T10:22:38;6.28;;;2.38;;
32427;SDS011;18882;50.952;4.366;2023-05-19T10:25:05;3.35;;;2.20;;
32427;SDS011;18882;50.952;4.366;2023-05-19T10:27:31;5.00;;;2.38;;
32427;SDS011;18882;50.952;4.366;2023-05-19T10:30:03;10.23;;;2.65;;
32427;SDS011;18882;50.952;4.366;2023-05-19T10:32:39;2.53;;;1.80;;
32427;SDS011;18882;50.952;4.366;2023-05-19T10:35:15;4.18;;;2.17;;
32427;SDS011;18882;50.952;4.366;2023-05-19T10:40:48;5.85;;;2.20;;
32427;SDS011;18882;50.952;4.366;2023-05-19T10:46:05;5.47;;;2.80;;
32427;SDS011;18882;50.952;4.366;2023-05-19T10:48:32;4.70;;;2.22;;
32427;SDS011;18882;50.952;4.366;2023-05-19T10:51:00;4.65;;;2.30;;
32427;SDS011;18882;50.952;4.366;2023-05-19T10:53:30;8.82;;;2.72;;
32427;SDS011;18882;50.952;4.366;2023-05-19T10:55:57;10.77;;;2.42;;
32427;SDS011;18882;50.952;4.366;2023-05-19T11:01:05;8.18;;;2.30;;
32427;SDS011;18882;50.952;4.366;2023-05-19T11:03:41;5.88;;;2.40;;
32427;SDS011;18882;50.952;4.366;2023-05-19T11:06:18;4.55;;;2.55;;
32427;SDS011;18882;50.952;4.366;2023-05-19T11:08:56;6.05;;;2.33;;
32427;SDS011;18882;50.952;4.366;2023-05-19T11:11:26;3.55;;;2.05;;
32427;SDS011;18882;50.952;4.366;2023-05-19T11:14:17;6.32;;;2.42;;
32427;SDS011;18882;50.952;4.366;2023-05-19T11:16:52;4.60;;;2.47;;
32427;SDS011;18882;50.952;4.366;2023-05-19T11:19:27;10.05;;;2.85;;
32427;SDS011;18882;50.952;4.366;2023-05-19T11:21:54;4.90;;;2.65;;
32427;SDS011;18882;50.952;4.366;2023-05-19T11:27:18;4.88;;;2.15;;
32427;SDS011;18882;50.952;4.366;2023-05-19T11:32:24;7.22;;;2.70;;
32427;SDS011;18882;50.952;4.366;2023-05-19T11:34:51;10.15;;;2.58;;
32427;SDS011;18882;50.952;4.366;2023-05-19T11:37:19;7.22;;;2.30;;
32427;SDS011;18882;50.952;4.366;2023-05-19T11:39:45;8.88;;;2.65;;
32427;SDS011;18882;50.952;4.366;2023-05-19T11:42:14;5.22;;;2.47;;
32427;SDS011;18882;50.952;4.366;2023-05-19T11:44:41;5.13;;;2.50;;
32427;SDS011;18882;50.952;4.366;2023-05-19T11:47:10;5.10;;;2.78;;
32427;SDS011;18882;50.952;4.366;2023-05-19T11:49:38;4.75;;;2.40;;
32427;SDS011;18882;50.952;4.366;2023-05-19T11:52:08;9.95;;;2.22;;
32427;SDS011;18882;50.952;4.366;2023-05-19T11:54:33;7.03;;;2.45;;
32427;SDS011;18882;50.952;4.366;2023-05-19T11:57:01;6.90;;;2.55;;
32427;SDS011;18882;50.952;4.366;2023-05-19T11:59:37;2.53;;;2.33;;
32427;SDS011;18882;50.952;4.366;2023-05-19T12:02:15;8.48;;;3.05;;
32427;SDS011;18882;50.952;4.366;2023-05-19T12:04:47;7.55;;;2.53;;
32427;SDS011;18882;50.952;4.366;2023-05-19T12:07:21;5.32;;;2.30;;
32427;SDS011;18882;50.952;4.366;2023-05-19T12:12:18;3.13;;;2.22;;
32427;SDS011;18882;50.952;4.366;2023-05-19T12:14:48;11.45;;;2.80;;
32427;SDS011;18882;50.952;4.366;2023-05-19T12:17:16;6.40;;;2.10;;
32427;SDS011;18882;50.952;4.366;2023-05-19T12:19:48;3.45;;;2.30;;
32427;SDS011;18882;50.952;4.366;2023-05-19T12:22:15;2.83;;;2.25;;
32427;SDS011;18882;50.952;4.366;2023-05-19T12:24:41;7.45;;;2.10;;
32427;SDS011;18882;50.952;4.366;2023-05-19T12:27:23;4.97;;;2.40;;
32427;SDS011;18882;50.952;4.366;2023-05-19T12:29:53;3.42;;;2.30;;
32427;SDS011;18882;50.952;4.366;2023-05-19T12:32:26;5.18;;;2.08;;
32427;SDS011;18882;50.952;4.366;2023-05-19T12:34:55;7.28;;;2.00;;
32427;SDS011;18882;50.952;4.366;2023-05-19T12:37:21;8.38;;;2.53;;
32427;SDS011;18882;50.952;4.366;2023-05-19T12:39:50;5.05;;;2.40;;
32427;SDS011;18882;50.952;4.366;2023-05-19T12:42:16;8.18;;;1.88;;
32427;SDS011;18882;50.952;4.366;2023-05-19T12:44:43;7.70;;;1.95;;
32427;SDS011;18882;50.952;4.366;2023-05-19T12:47:15;3.28;;;1.88;;
32427;SDS011;18882;50.952;4.366;2023-05-19T12:52:23;5.82;;;2.22;;
32427;SDS011;18882;50.952;4.366;2023-05-19T12:54:56;6.18;;;2.50;;
32427;SDS011;18882;50.952;4.366;2023-05-19T12:57:24;6.47;;;2.13;;
32427;SDS011;18882;50.952;4.366;2023-05-19T12:59:50;4.05;;;2.03;;
32427;SDS011;18882;50.952;4.366;2023-05-19T13:02:16;4.05;;;1.85;;
32427;SDS011;18882;50.952;4.366;2023-05-19T13:04:42;5.03;;;1.83;;
32427;SDS011;18882;50.952;4.366;2023-05-19T13:07:08;2.90;;;2.25;;
32427;SDS011;18882;50.952;4.366;2023-05-19T13:09:34;2.53;;;1.70;;
32427;SDS011;18882;50.952;4.366;2023-05-19T13:12:00;6.63;;;2.38;;
32427;SDS011;18882;50.952;4.366;2023-05-19T13:14:26;4.30;;;2.00;;
32427;SDS011;18882;50.952;4.366;2023-05-19T13:16:52;2.60;;;2.05;;
32427;SDS011;18882;50.952;4.366;2023-05-19T13:19:18;6.32;;;1.95;;
32427;SDS011;18882;50.952;4.366;2023-05-19T13:21:45;5.70;;;1.60;;
32427;SDS011;18882;50.952;4.366;2023-05-19T13:24:11;2.80;;;1.70;;
32427;SDS011;18882;50.952;4.366;2023-05-19T13:26:37;11.32;;;1.98;;
32427;SDS011;18882;50.952;4.366;2023-05-19T13:29:04;2.72;;;1.75;;
32427;SDS011;18882;50.952;4.366;2023-05-19T13:31:30;6.65;;;1.88;;
32427;SDS011;18882;50.952;4.366;2023-05-19T13:33:56;6.75;;;2.40;;
32427;SDS011;18882;50.952;4.366;2023-05-19T13:36:21;5.68;;;1.75;;
32427;SDS011;18882;50.952;4.366;2023-05-19T13:38:47;5.65;;;2.08;;
32427;SDS011;18882;50.952;4.366;2023-05-19T13:41:13;1.52;;;1.42;;
32427;SDS011;18882;50.952;4.366;2023-05-19T13:43:38;2.35;;;1.60;;
32427;SDS011;18882;50.952;4.366;2023-05-19T13:46:04;5.10;;;2.08;;
32427;SDS011;18882;50.952;4.366;2023-05-19T13:48:30;6.18;;;1.80;;
32427;SDS011;18882;50.952;4.366;2023-05-19T13:50:56;5.53;;;1.80;;
32427;SDS011;18882;50.952;4.366;2023-05-19T13:53:21;3.80;;;2.20;;
32427;SDS011;18882;50.952;4.366;2023-05-19T13:55:47;6.43;;;1.98;;
32427;SDS011;18882;50.952;4.366;2023-05-19T13:58:13;4.80;;;1.88;;
32427;SDS011;18882;50.952;4.366;2023-05-19T14:00:40;4.88;;;1.77;;
32427;SDS011;18882;50.952;4.366;2023-05-19T14:03:06;7.38;;;2.30;;
32427;SDS011;18882;50.952;4.366;2023-05-19T14:05:32;6.68;;;2.08;;
32427;SDS011;18882;50.952;4.366;2023-05-19T14:07:58;4.80;;;1.63;;
32427;SDS011;18882;50.952;4.366;2023-05-19T14:10:25;3.50;;;1.50;;
32427;SDS011;18882;50.952;4.366;2023-05-19T14:12:51;4.68;;;1.77;;
32427;SDS011;18882;50.952;4.366;2023-05-19T14:15:18;5.03;;;1.70;;
32427;SDS011;18882;50.952;4.366;2023-05-19T14:17:44;6.63;;;2.75;;
32427;SDS011;18882;50.952;4.366;2023-05-19T14:20:10;4.88;;;1.98;;
32427;SDS011;18882;50.952;4.366;2023-05-19T14:22:36;6.13;;;1.92;;
32427;SDS011;18882;50.952;4.366;2023-05-19T14:25:02;2.72;;;1.50;;
32427;SDS011;18882;50.952;4.366;2023-05-19T14:27:27;5.38;;;1.50;;
32427;SDS011;18882;50.952;4.366;2023-05-19T14:29:54;3.88;;;1.70;;
32427;SDS011;18882;50.952;4.366;2023-05-19T14:32:20;2.13;;;1.38;;
32427;SDS011;18882;50.952;4.366;2023-05-19T14:34:46;8.90;;;1.80;;
32427;SDS011;18882;50.952;4.366;2023-05-19T14:37:11;9.43;;;1.48;;
32427;SDS011;18882;50.952;4.366;2023-05-19T14:39:37;5.53;;;1.58;;
32427;SDS011;18882;50.952;4.366;2023-05-19T14:42:03;4.18;;;1.45;;
32427;SDS011;18882;50.952;4.366;2023-05-19T14:44:29;13.05;;;2.20;;
32427;SDS011;18882;50.952;4.366;2023-05-19T14:46:58;5.45;;;1.95;;
32427;SDS011;18882;50.952;4.366;2023-05-19T14:49:25;6.47;;;1.75;;
32427;SDS011;18882;50.952;4.366;2023-05-19T14:51:50;3.42;;;1.20;;
32427;SDS011;18882;50.952;4.366;2023-05-19T14:54:16;5.60;;;1.40;;
32427;SDS011;18882;50.952;4.366;2023-05-19T14:56:42;2.35;;;1.20;;
32427;SDS011;18882;50.952;4.366;2023-05-19T14:59:07;2.53;;;1.80;;
32427;SDS011;18882;50.952;4.366;2023-05-19T15:01:33;2.58;;;1.38;;
32427;SDS011;18882;50.952;4.366;2023-05-19T15:03:59;2.20;;;1.50;;
32427;SDS011;18882;50.952;4.366;2023-05-19T15:06:24;3.70;;;1.38;;
32427;SDS011;18882;50.952;4.366;2023-05-19T15:08:50;6.38;;;1.33;;
32427;SDS011;18882;50.952;4.366;2023-05-19T15:11:16;3.75;;;1.85;;
32427;SDS011;18882;50.952;4.366;2023-05-19T15:13:41;6.13;;;1.52;;
32427;SDS011;18882;50.952;4.366;2023-05-19T15:16:07;4.82;;;1.73;;
32427;SDS011;18882;50.952;4.366;2023-05-19T15:18:35;3.90;;;1.77;;
32427;SDS011;18882;50.952;4.366;2023-05-19T15:21:01;4.75;;;1.38;;
32427;SDS011;18882;50.952;4.366;2023-05-19T15:23:27;6.63;;;2.38;;
32427;SDS011;18882;50.952;4.366;2023-05-19T15:25:53;5.07;;;1.20;;
32427;SDS011;18882;50.952;4.366;2023-05-19T15:28:19;9.15;;;2.03;;
32427;SDS011;18882;50.952;4.366;2023-05-19T15:30:45;3.08;;;1.83;;